Time;durP1;ratioP1;P1;durP2;ratioP2;P2;SDS_P1;SDS_P2;PMS_P1;PMS_P2;Temp;Humidity;BMP_temperature;BMP_pressure;BME280_temperature;BME280_humidity;BME280_pressure;Samples;Min_cycle;Max_cycle;Signal;HPM_P1;HPM_P2
2022/12/20 00:04:57;;;;;;;64.70;40.07;;;;;;;0.11;62.73;100313.75;10481959;28;20224;-66
2022/12/20 00:09:58;;;;;;;57.00;37.50;;;;;;;0.83;59.63;100343.06;10479967;28;20472;-66
2022/12/20 00:15:00;;;;;;;52.17;35.47;;;;;;;1.49;58.84;100358.63;10485127;28;20258;-66
2022/12/20 00:20:02;;;;;;;52.47;35.00;;;;;;;0.93;59.45;100345.88;10485020;28;20252;-66
2022/12/20 00:25:04;;;;;;;55.23;36.03;;;;;;;-0.13;61.52;100297.81;10482455;28;20234;-66
2022/12/20 00:30:07;;;;;;;59.60;38.40;;;;;;;-0.62;64.38;100336.00;10482296;28;20299;-66
2022/12/20 00:35:09;;;;;;;60.63;37.93;;;;;;;0.24;63.34;100322.53;10480939;28;20228;-66
2022/12/20 00:40:11;;;;;;;61.30;35.97;;;;;;;0.61;61.37;100327.03;10482870;28;20238;-67
2022/12/20 00:45:13;;;;;;;55.23;35.20;;;;;;;0.24;61.37;100314.63;10485035;28;20233;-66
2022/12/20 00:50:14;;;;;;;59.57;35.57;;;;;;;0.99;60.82;100328.78;10481398;28;20791;-65
2022/12/20 00:55:16;;;;;;;61.20;35.63;;;;;;;1.22;60.88;100340.34;10483299;28;20621;-67
2022/12/20 01:00:18;;;;;;;53.73;33.90;;;;;;;0.82;60.60;100345.78;10480964;28;20335;-66
2022/12/20 01:05:20;;;;;;;53.27;36.10;;;;;;;1.09;60.48;100336.91;10478987;28;20238;-67
2022/12/20 01:10:21;;;;;;;51.03;34.47;;;;;;;0.54;60.39;100326.63;10480740;28;20238;-66
2022/12/20 01:15:23;;;;;;;55.43;34.90;;;;;;;0.47;60.95;100320.94;10483242;28;20232;-65
2022/12/20 01:20:25;;;;;;;50.00;35.70;;;;;;;0.19;62.46;100322.00;10482816;28;20241;-66
2022/12/20 01:25:26;;;;;;;59.07;34.30;;;;;;;0.08;62.07;100309.53;10480181;28;20238;-66
2022/12/20 01:30:28;;;;;;;55.23;35.00;;;;;;;0.55;61.00;100314.31;10479050;28;20871;-66
2022/12/20 01:35:30;;;;;;;53.83;35.87;;;;;;;0.09;62.38;100310.38;10480596;28;20236;-67
2022/12/20 01:40:32;;;;;;;57.80;37.53;;;;;;;0.32;61.45;100316.72;10476858;28;20230;-67
2022/12/20 01:45:33;;;;;;;63.40;39.60;;;;;;;0.06;63.09;100306.16;10480625;28;20226;-68
2022/12/20 01:50:36;;;;;;;58.43;38.53;;;;;;;0.08;61.95;100298.16;10461325;28;20766;-66
2022/12/20 01:55:38;;;;;;;57.03;38.37;;;;;;;-0.07;63.20;100292.97;10482390;28;20235;-66
2022/12/20 02:00:39;;;;;;;64.77;39.13;;;;;;;0.37;63.52;100300.63;10463815;28;20238;-66
2022/12/20 02:05:44;;;;;;;61.00;38.00;;;;;;;-0.16;64.12;100293.59;10479804;28;20228;-67
2022/12/20 02:11:02;;;;;;;69.60;41.57;;;;;;;-0.12;63.86;100284.56;10466104;28;20234;-66
2022/12/20 02:16:04;;;;;;;65.97;40.70;;;;;;;-0.74;65.19;100264.03;10478926;28;20236;-68
2022/12/20 02:21:43;;;;;;;61.80;41.77;;;;;;;-0.32;65.27;100262.19;10479625;28;20234;-66
2022/12/20 02:27:16;;;;;;;62.83;40.20;;;;;;;-0.01;63.73;100240.88;10476883;28;20236;-67
2022/12/20 02:32:29;;;;;;;60.07;40.33;;;;;;;-0.01;64.45;100233.00;10474447;28;20237;-68
2022/12/20 02:37:31;;;;;;;61.33;39.77;;;;;;;-0.13;64.70;100240.78;10479554;28;20242;-67
2022/12/20 02:42:33;;;;;;;57.67;38.03;;;;;;;0.58;62.82;100261.41;10477269;28;20710;-67
2022/12/20 02:47:41;;;;;;;60.97;38.00;;;;;;;0.10;64.61;100241.00;10479075;28;20642;-68
2022/12/20 02:52:43;;;;;;;59.57;35.77;;;;;;;0.58;63.51;100240.31;10476645;28;20223;-67
2022/12/20 02:57:53;;;;;;;60.30;38.90;;;;;;;0.79;64.38;100241.44;10479034;28;20237;-67
2022/12/20 03:08:23;;;;;;;57.77;36.30;;;;;;;0.43;62.56;100258.06;10475906;28;20241;-68
2022/12/20 03:13:25;;;;;;;59.97;37.47;;;;;;;1.77;59.15;100309.13;10468855;28;20252;-68
2022/12/20 03:18:27;;;;;;;60.13;35.20;;;;;;;1.20;60.01;100286.84;10477927;28;20244;-68
2022/12/20 03:23:29;;;;;;;53.73;33.90;;;;;;;0.25;62.10;100239.94;10480022;28;20228;-69
2022/12/20 03:28:30;;;;;;;48.73;32.03;;;;;;;0.64;61.76;100258.34;10477730;28;20231;-67
2022/12/20 03:33:32;;;;;;;53.50;34.40;;;;;;;0.57;63.84;100250.03;10476295;28;20632;-66
2022/12/20 03:38:34;;;;;;;55.97;34.13;;;;;;;0.11;63.71;100224.28;10476340;28;20804;-67
2022/12/20 03:43:35;;;;;;;46.87;30.17;;;;;;;1.38;62.37;100276.81;10479283;28;20229;-68
2022/12/20 03:48:37;;;;;;;40.63;27.07;;;;;;;0.61;63.25;100248.00;10478628;28;20241;-70
2022/12/20 03:53:39;;;;;;;41.80;26.37;;;;;;;0.76;63.79;100252.19;10478465;28;20282;-71
2022/12/20 03:58:41;;;;;;;42.17;27.00;;;;;;;0.38;65.32;100223.31;10477230;28;20232;-69
2022/12/20 04:03:42;;;;;;;37.77;26.87;;;;;;;0.72;63.51;100234.09;10475498;28;20240;-68
2022/12/20 04:08:44;;;;;;;48.70;30.20;;;;;;;0.48;63.89;100219.09;10477693;28;20245;-69
2022/12/20 04:13:51;;;;;;;55.00;32.80;;;;;;;0.57;64.44;100228.97;10485066;28;20228;-69
2022/12/20 04:18:53;;;;;;;44.60;29.90;;;;;;;0.73;63.67;100226.09;10483095;28;20226;-69
2022/12/20 04:23:55;;;;;;;47.53;30.67;;;;;;;1.50;62.12;100244.25;10484514;28;20635;-69
2022/12/20 04:28:57;;;;;;;39.80;28.27;;;;;;;1.36;63.26;100234.72;10484078;28;20229;-68
2022/12/20 04:33:59;;;;;;;43.30;26.33;;;;;;;2.06;60.47;100269.13;10478261;28;20230;-69
2022/12/20 04:39:01;;;;;;;71.27;49.43;;;;;;;1.29;61.68;100241.38;10481224;28;20244;-71
2022/12/20 04:44:02;;;;;;;47.80;29.70;;;;;;;1.01;63.59;100224.94;10482691;28;20235;-68
2022/12/20 04:49:04;;;;;;;44.30;32.43;;;;;;;1.54;60.81;100255.41;10478516;28;20233;-68
2022/12/20 04:54:06;;;;;;;50.33;32.77;;;;;;;1.27;60.94;100245.06;10481131;28;20837;-72
2022/12/20 04:59:08;;;;;;;45.00;30.33;;;;;;;1.27;61.36;100245.06;10481331;28;20237;-66
2022/12/20 05:04:09;;;;;;;44.37;28.03;;;;;;;2.09;59.56;100280.28;10483388;28;20230;-67
2022/12/20 05:09:11;;;;;;;37.60;26.23;;;;;;;1.80;60.50;100245.56;10484642;28;20249;-68
2022/12/20 05:14:13;;;;;;;40.13;25.50;;;;;;;1.17;60.98;100224.66;10482615;28;20599;-68
2022/12/20 05:19:14;;;;;;;40.87;26.53;;;;;;;1.32;61.60;100237.69;10471341;28;20799;-68
2022/12/20 05:29:36;;;;;;;39.50;26.07;;;;;;;1.70;59.94;100252.47;10482844;28;20232;-69
2022/12/20 05:34:38;;;;;;;40.87;27.97;;;;;;;1.32;60.83;100242.97;10485809;28;20241;-69
2022/12/20 05:39:39;;;;;;;41.43;27.53;;;;;;;1.63;60.42;100252.09;10484410;28;20234;-68
2022/12/20 05:44:41;;;;;;;38.90;25.80;;;;;;;1.68;60.94;100242.03;10483950;28;20233;-68
2022/12/20 05:49:43;;;;;;;36.33;26.37;;;;;;;2.01;61.33;100243.06;10480492;28;20630;-68
2022/12/20 05:54:45;;;;;;;37.20;24.83;;;;;;;2.22;60.71;100255.59;10483750;28;20234;-69
2022/12/20 05:59:47;;;;;;;37.43;24.17;;;;;;;1.46;60.69;100245.44;10483626;28;20316;-68
2022/12/20 06:04:48;;;;;;;39.97;24.63;;;;;;;1.89;60.24;100246.66;10481053;28;20227;-68
2022/12/20 06:09:50;;;;;;;37.70;25.80;;;;;;;1.60;60.47;100231.22;10483313;28;20281;-67
2022/12/20 06:14:52;;;;;;;37.47;26.97;;;;;;;1.26;61.77;100209.97;10481241;28;20236;-70
2022/12/20 06:19:53;;;;;;;35.23;25.27;;;;;;;0.63;64.67;100196.06;10479987;28;20613;-67
2022/12/20 06:24:55;;;;;;;46.90;30.60;;;;;;;0.86;63.47;100220.78;10482984;28;20245;-68
2022/12/20 06:29:56;;;;;;;44.20;29.30;;;;;;;0.51;62.92;100189.88;10481808;28;20233;-66
2022/12/20 06:34:58;;;;;;;43.07;28.87;;;;;;;0.30;64.85;100184.34;10482459;28;20229;-67
2022/12/20 06:40:00;;;;;;;43.57;27.27;;;;;;;0.29;65.38;100180.88;10481863;28;20683;-68
2022/12/20 06:45:03;;;;;;;48.80;35.10;;;;;;;0.57;65.87;100171.00;10482199;28;20252;-66
2022/12/20 06:50:06;;;;;;;40.90;28.93;;;;;;;0.78;65.28;100181.81;10481955;28;20622;-69
2022/12/20 06:55:07;;;;;;;43.77;31.70;;;;;;;0.19;65.55;100156.16;10479783;28;20614;-69
2022/12/20 07:00:11;;;;;;;39.77;26.00;;;;;;;0.33;66.35;100157.81;10482410;28;20234;-67
2022/12/20 07:05:13;;;;;;;34.53;23.80;;;;;;;0.43;67.31;100161.47;10478037;28;20323;-67
2022/12/20 07:10:15;;;;;;;37.30;26.50;;;;;;;0.57;64.26;100164.91;10483754;28;20244;-66
2022/12/20 07:15:17;;;;;;;33.73;23.30;;;;;;;2.32;60.20;100235.44;10464426;28;20639;-67
2022/12/20 07:20:19;;;;;;;31.13;20.23;;;;;;;0.16;66.60;100130.06;10479848;28;20275;-68
2022/12/20 07:25:20;;;;;;;23.60;16.97;;;;;;;-0.07;69.65;100150.06;10479883;28;20244;-69
2022/12/20 07:30:22;;;;;;;30.23;20.73;;;;;;;0.58;67.99;100146.38;10479127;28;20246;-70
2022/12/20 07:35:26;;;;;;;19.27;14.53;;;;;;;0.01;70.07;100125.88;10482074;28;20241;-69
2022/12/20 07:40:28;;;;;;;22.60;15.43;;;;;;;1.03;67.90;100128.16;10479063;28;20244;-69
2022/12/20 07:45:30;;;;;;;21.07;16.80;;;;;;;1.48;66.54;100139.81;10483757;28;20911;-68
2022/12/20 07:50:34;;;;;;;18.90;15.10;;;;;;;2.82;61.02;100209.47;10487661;28;20232;-68
2022/12/20 07:55:38;;;;;;;22.13;17.53;;;;;;;2.46;61.19;100186.81;10487697;28;20593;-68
2022/12/20 08:00:41;;;;;;;25.10;20.00;;;;;;;2.19;61.44;100187.19;10486968;28;20779;-69
2022/12/20 08:05:49;;;;;;;23.33;16.83;;;;;;;2.08;62.25;100182.72;10484313;28;20328;-68
2022/12/20 08:10:51;;;;;;;20.60;16.23;;;;;;;2.75;60.40;100225.91;10484671;28;20373;-69
2022/12/20 08:15:53;;;;;;;19.80;15.57;;;;;;;2.29;60.74;100193.41;10486730;28;20776;-69
2022/12/20 08:20:55;;;;;;;24.93;19.03;;;;;;;1.23;64.77;100136.38;10485956;28;20234;-68
2022/12/20 08:26:00;;;;;;;23.53;16.57;;;;;;;1.85;62.65;100168.69;10487265;28;20230;-68
2022/12/20 08:31:07;;;;;;;22.40;17.30;;;;;;;2.82;59.74;100206.81;10486525;28;20242;-70
2022/12/20 08:36:10;;;;;;;25.60;18.37;;;;;;;2.45;60.93;100188.63;10486882;28;20226;-70
2022/12/20 08:41:13;;;;;;;26.03;19.40;;;;;;;2.27;61.21;100176.84;10486269;28;20242;-67
2022/12/20 08:46:15;;;;;;;22.77;17.47;;;;;;;1.95;62.11;100154.63;10485375;28;20246;-68
2022/12/20 08:51:17;;;;;;;22.93;17.17;;;;;;;2.46;61.52;100178.88;10482963;28;20598;-68
2022/12/20 08:56:19;;;;;;;27.03;18.07;;;;;;;3.12;60.13;100209.78;10482897;28;20596;-69
2022/12/20 09:01:21;;;;;;;31.90;22.60;;;;;;;3.10;60.27;100204.59;10482401;28;20235;-67
2022/12/20 09:06:23;;;;;;;30.60;22.90;;;;;;;2.40;60.07;100182.84;10482354;28;20238;-68
2022/12/20 09:11:26;;;;;;;30.53;21.53;;;;;;;2.83;59.98;100207.66;10483763;28;20231;-69
2022/12/20 09:16:30;;;;;;;27.30;19.90;;;;;;;3.05;59.71;100231.41;10466382;28;20250;-68
2022/12/20 09:21:33;;;;;;;23.27;16.87;;;;;;;2.30;62.35;100166.88;10483441;28;20634;-70
2022/12/20 09:26:35;;;;;;;21.50;18.07;;;;;;;3.16;60.35;100219.97;10482470;28;20621;-68
2022/12/20 09:31:37;;;;;;;28.10;21.53;;;;;;;2.42;62.14;100182.75;10482629;28;20242;-68
2022/12/20 09:36:39;;;;;;;28.53;18.83;;;;;;;3.41;60.08;100233.81;10478395;28;20239;-68
2022/12/20 09:41:43;;;;;;;22.93;18.17;;;;;;;2.98;60.79;100213.53;10479534;28;20454;-69
2022/12/20 09:47:13;;;;;;;24.03;17.20;;;;;;;3.26;61.06;100239.41;10481644;28;20249;-68
2022/12/20 09:52:34;;;;;;;21.33;16.60;;;;;;;2.55;61.73;100183.41;10469680;28;20805;-66
2022/12/20 09:57:46;;;;;;;22.03;16.40;;;;;;;2.74;62.39;100172.22;10479273;28;20728;-65
2022/12/20 10:02:48;;;;;;;22.07;15.10;;;;;;;1.75;65.52;100103.41;10477887;28;20231;-65
2022/12/20 10:08:22;;;;;;;20.83;16.30;;;;;;;1.77;64.92;100125.22;10478547;28;20634;-64
2022/12/20 10:13:27;;;;;;;20.50;15.87;;;;;;;2.41;64.47;100139.63;10480497;28;20230;-64
2022/12/20 10:18:40;;;;;;;21.73;17.23;;;;;;;2.22;65.20;100131.50;10480254;28;20227;-65
2022/12/20 10:23:53;;;;;;;24.23;18.40;;;;;;;2.79;62.80;100158.63;10479248;28;20231;-64
2022/12/20 10:28:54;;;;;;;24.37;18.57;;;;;;;3.40;61.35;100192.47;10477669;28;20280;-65
2022/12/20 10:33:56;;;;;;;25.43;19.90;;;;;;;3.19;61.82;100165.97;10479725;28;20237;-66
2022/12/20 10:39:05;;;;;;;24.67;18.73;;;;;;;3.01;62.40;100155.97;10479438;28;20238;-66
2022/12/20 10:44:26;;;;;;;24.10;20.07;;;;;;;3.63;59.63;100180.81;10479637;28;20219;-66
2022/12/20 10:49:27;;;;;;;24.87;19.40;;;;;;;2.78;62.75;100134.00;10477590;28;20266;-65
2022/12/20 10:54:47;;;;;;;22.70;18.73;;;;;;;2.28;64.71;100101.94;10479560;28;20239;-65
2022/12/20 10:59:48;;;;;;;24.37;18.53;;;;;;;3.27;61.08;100153.78;10479004;28;20230;-65
2022/12/20 11:06:24;;;;;;;24.30;19.80;;;;;;;2.67;63.94;100087.31;10562578;27;20295;-65
2022/12/20 11:11:26;;;;;;;22.33;18.37;;;;;;;2.80;63.14;100073.91;10432029;28;20255;-65
2022/12/20 11:16:36;;;;;;;28.30;21.67;;;;;;;2.84;63.48;100071.91;10468986;28;20883;-65
2022/12/20 11:21:47;;;;;;;44.70;30.63;;;;;;;2.39;63.68;100054.38;10478157;28;20235;-64
2022/12/20 11:26:49;;;;;;;40.57;28.07;;;;;;;2.22;64.38;100047.81;10453159;28;20234;-64
2022/12/20 11:32:15;;;;;;;30.87;24.43;;;;;;;2.89;64.46;100067.88;10467220;28;20246;-65
2022/12/20 11:37:25;;;;;;;57.17;39.07;;;;;;;3.00;62.80;100066.19;10470958;28;20236;-65
2022/12/20 11:42:37;;;;;;;43.03;31.97;;;;;;;3.60;62.24;100099.00;10471933;28;20255;-64
2022/12/20 11:48:01;;;;;;;34.10;25.23;;;;;;;2.72;64.37;100042.84;10460591;28;20774;-65
2022/12/20 11:53:35;;;;;;;26.10;21.67;;;;;;;3.68;62.15;100095.69;10465910;28;20235;-63
2022/12/20 11:58:57;;;;;;;29.90;24.40;;;;;;;3.34;62.48;100066.00;10472056;28;20338;-65
2022/12/20 12:04:03;;;;;;;33.87;22.80;;;;;;;2.74;64.00;100021.59;10476817;28;20939;-65
2022/12/20 12:09:10;;;;;;;27.53;22.00;;;;;;;2.73;63.54;100022.53;10461947;28;20231;-66
2022/12/20 12:14:28;;;;;;;24.87;20.83;;;;;;;3.56;62.35;100068.47;10460543;28;20609;-66
2022/12/20 12:19:31;;;;;;;31.50;24.27;;;;;;;3.65;62.46;100058.94;10437468;28;20314;-65
2022/12/20 12:24:42;;;;;;;35.27;24.80;;;;;;;3.70;61.88;100022.31;10441662;28;20232;-66
2022/12/20 12:29:44;;;;;;;28.90;22.67;;;;;;;3.19;63.41;99978.19;10447030;28;20240;-65
2022/12/20 12:35:07;;;;;;;35.57;25.03;;;;;;;3.67;62.12;100019.09;10443324;28;20290;-65
2022/12/20 12:40:36;;;;;;;38.17;28.13;;;;;;;4.07;62.14;100047.34;10441088;28;20247;-66
2022/12/20 12:45:54;;;;;;;36.37;26.83;;;;;;;2.84;65.32;99969.63;10443167;28;20251;-66
2022/12/20 12:50:57;;;;;;;33.57;25.07;;;;;;;2.68;66.52;99945.47;10443829;28;20348;-66
2022/12/20 12:56:25;;;;;;;31.70;23.90;;;;;;;3.26;64.72;99961.69;10440268;28;20649;-66
2022/12/20 13:02:02;;;;;;;33.57;24.10;;;;;;;3.15;64.47;99950.34;10444675;28;20295;-66
2022/12/20 13:07:25;;;;;;;29.00;23.43;;;;;;;3.41;65.65;99962.19;10444896;28;20263;-66
2022/12/20 13:12:36;;;;;;;27.53;22.80;;;;;;;4.20;62.03;100014.38;10412740;28;20224;-66
2022/12/20 13:17:50;;;;;;;27.77;22.00;;;;;;;3.61;63.70;99972.81;10445088;28;20240;-65
2022/12/20 13:23:16;;;;;;;30.47;23.40;;;;;;;4.27;62.17;99992.59;10437852;28;20932;-66
2022/12/20 13:28:23;;;;;;;31.47;24.57;;;;;;;3.61;63.10;99955.16;10434715;28;20274;-65
2022/12/20 13:33:43;;;;;;;28.33;21.70;;;;;;;3.62;64.14;99956.81;10445651;28;20228;-66
2022/12/20 13:38:44;;;;;;;27.43;22.73;;;;;;;3.94;62.21;99971.66;10431008;28;20949;-66
2022/12/20 13:43:48;;;;;;;33.97;24.47;;;;;;;4.35;62.28;99975.06;10432794;28;20234;-66
2022/12/20 13:48:54;;;;;;;31.30;23.30;;;;;;;4.96;61.22;99991.63;10435274;28;20238;-66
2022/12/20 13:54:02;;;;;;;26.73;21.27;;;;;;;4.53;61.49;99967.25;10437041;28;20242;-66
2022/12/20 13:59:14;;;;;;;27.47;21.23;;;;;;;3.89;63.13;99922.75;10441669;28;20711;-65
2022/12/20 14:04:18;;;;;;;28.97;22.87;;;;;;;3.82;62.46;99935.69;10429308;28;20229;-66
2022/12/20 14:09:53;;;;;;;36.33;27.77;;;;;;;4.04;63.75;99945.19;10428808;28;20241;-65
2022/12/20 14:14:55;;;;;;;43.00;31.23;;;;;;;4.06;63.29;99937.94;10439602;28;20238;-66
2022/12/20 14:20:21;;;;;;;42.57;32.07;;;;;;;4.57;62.23;99963.34;10440057;28;20228;-66
2022/12/20 14:25:34;;;;;;;73.07;51.00;;;;;;;4.82;60.81;99981.47;10439971;28;20239;-66
2022/12/20 14:30:42;;;;;;;70.93;51.00;;;;;;;4.38;61.05;99960.72;10415605;28;20632;-66
2022/12/20 14:35:48;;;;;;;67.57;49.00;;;;;;;4.66;61.25;99966.97;10427898;28;20323;-66
2022/12/20 14:40:51;;;;;;;56.67;38.53;;;;;;;4.10;62.07;99930.53;10443498;28;20272;-66
2022/12/20 14:46:18;;;;;;;53.23;37.50;;;;;;;3.77;64.40;99896.38;10428163;28;20235;-66
2022/12/20 14:51:23;;;;;;;41.33;28.57;;;;;;;3.82;64.06;99915.34;10427678;28;20830;-66
2022/12/20 14:56:25;;;;;;;43.23;30.60;;;;;;;4.28;62.67;99941.31;10427880;28;20243;-66
2022/12/20 15:01:32;;;;;;;40.77;31.43;;;;;;;4.60;61.95;99956.94;10434229;28;20940;-66
2022/12/20 15:06:43;;;;;;;38.33;31.17;;;;;;;4.34;62.29;99940.75;10432665;28;20243;-66
2022/12/20 15:11:46;;;;;;;38.03;29.70;;;;;;;4.79;61.51;99968.50;10445468;28;20228;-72
2022/12/20 15:16:52;;;;;;;33.37;27.50;;;;;;;3.60;63.29;99899.69;10430984;28;20932;-70
2022/12/20 15:21:53;;;;;;;38.57;28.13;;;;;;;3.23;64.24;99872.03;10439733;28;20251;-68
2022/12/20 15:26:55;;;;;;;41.17;29.60;;;;;;;3.28;64.88;99882.22;10410437;28;20243;-66
2022/12/20 15:32:09;;;;;;;34.70;26.43;;;;;;;3.60;62.94;99883.81;10428745;28;20262;-73
2022/12/20 15:37:14;;;;;;;28.87;24.00;;;;;;;3.20;64.58;99850.31;10436451;28;20356;-69
2022/12/20 15:42:20;;;;;;;36.17;27.13;;;;;;;3.02;65.31;99842.16;10416592;28;20297;-67
2022/12/20 15:47:22;;;;;;;36.03;26.23;;;;;;;3.18;65.17;99853.06;10424210;28;20252;-68
2022/12/20 15:52:24;;;;;;;41.40;29.13;;;;;;;2.41;67.78;99835.84;10437969;28;20229;-69
2022/12/20 15:57:27;;;;;;;34.67;25.47;;;;;;;3.69;64.56;99890.94;10443479;28;20234;-70
2022/12/20 16:02:31;;;;;;;32.37;23.87;;;;;;;3.05;65.79;99848.00;10432301;28;20260;-73
2022/12/20 16:07:33;;;;;;;62.33;43.90;;;;;;;3.26;64.48;99855.88;10433991;28;20240;-68
2022/12/20 16:12:35;;;;;;;43.30;34.17;;;;;;;4.36;62.40;99914.97;10443744;28;20787;-69
2022/12/20 16:17:37;;;;;;;26.53;22.60;;;;;;;3.93;63.30;99887.88;10437561;28;20324;-69
2022/12/20 16:22:39;;;;;;;38.20;27.80;;;;;;;4.25;61.30;99904.50;10427641;28;20249;-72
2022/12/20 16:27:40;;;;;;;40.63;28.57;;;;;;;3.67;62.67;99866.41;10449193;28;20301;-69
2022/12/20 16:32:42;;;;;;;34.40;24.97;;;;;;;4.20;61.23;99896.94;10460237;28;20704;-69
2022/12/20 16:37:44;;;;;;;28.40;22.53;;;;;;;3.96;61.76;99884.13;10459921;28;20258;-72
2022/12/20 16:42:46;;;;;;;29.60;24.33;;;;;;;3.79;62.56;99878.53;10450765;28;20271;-69
2022/12/20 16:47:48;;;;;;;37.83;26.77;;;;;;;4.17;62.32;99905.16;10433153;28;20241;-68
2022/12/20 16:52:50;;;;;;;27.57;21.27;;;;;;;4.27;61.46;99894.56;10454123;28;20227;-69
2022/12/20 16:57:52;;;;;;;27.20;21.33;;;;;;;4.30;61.84;99892.47;10449114;28;20249;-71
2022/12/20 17:02:55;;;;;;;28.00;20.87;;;;;;;4.30;60.94;99873.09;10453613;28;20258;-71
2022/12/20 17:07:57;;;;;;;27.07;20.57;;;;;;;3.76;62.57;99851.50;9550239;28;10001069;-71
2022/12/20 17:12:59;;;;;;;24.47;19.00;;;;;;;4.03;62.33;99858.75;8610044;28;10001597;-71
2022/12/20 17:18:00;;;;;;;24.13;18.47;;;;;;;3.57;63.08;99839.94;10369554;28;20737;-71
2022/12/20 17:23:02;;;;;;;22.33;17.73;;;;;;;3.57;63.42;99852.34;10371204;28;20231;-70
2022/12/20 17:28:05;;;;;;;22.57;18.37;;;;;;;3.18;64.18;99842.50;10370085;28;20241;-67
2022/12/20 17:33:13;;;;;;;27.07;19.67;;;;;;;3.87;63.09;99867.28;10369083;28;20245;-70
2022/12/20 17:38:15;;;;;;;25.17;18.17;;;;;;;3.88;63.07;99866.28;10352125;28;20233;-67
2022/12/20 17:43:16;;;;;;;25.40;17.93;;;;;;;3.74;63.06;99850.81;10330428;28;20238;-67
2022/12/20 17:48:18;;;;;;;21.40;17.33;;;;;;;4.01;62.15;99873.97;10303811;28;20230;-67
2022/12/20 17:53:20;;;;;;;23.43;16.97;;;;;;;4.87;60.56;99918.25;10301523;28;20259;-67
2022/12/20 17:58:21;;;;;;;24.13;18.20;;;;;;;3.89;62.25;99853.91;10302114;28;20226;-67
2022/12/20 18:03:23;;;;;;;25.77;17.93;;;;;;;4.79;60.40;99902.22;10306490;28;20232;-67
2022/12/20 18:08:48;;;;;;;29.13;21.70;;;;;;;4.89;59.80;99911.78;10307392;28;20311;-67
2022/12/20 18:13:51;;;;;;;29.40;20.77;;;;;;;4.37;60.06;99890.13;10307064;28;20237;-67
2022/12/20 18:18:54;;;;;;;23.83;16.63;;;;;;;4.72;60.13;99899.28;10304820;28;20246;-67
2022/12/20 18:23:56;;;;;;;41.13;28.80;;;;;;;4.45;60.64;99881.50;10308832;28;20231;-67
2022/12/20 18:28:59;;;;;;;32.07;24.67;;;;;;;4.60;60.43;99869.47;10299426;28;20378;-67
2022/12/20 18:34:02;;;;;;;44.40;33.37;;;;;;;3.87;62.36;99839.94;10304771;28;20288;-67
2022/12/20 18:39:06;;;;;;;57.73;45.60;;;;;;;3.72;61.54;99839.53;10303833;28;20235;-67
2022/12/20 18:44:09;;;;;;;67.43;52.13;;;;;;;3.73;61.32;99835.91;10301197;28;20231;-67
2022/12/20 18:49:11;;;;;;;35.47;27.87;;;;;;;4.26;60.87;99872.56;10301441;28;20239;-68
2022/12/20 18:54:13;;;;;;;29.83;25.00;;;;;;;3.46;63.48;99845.34;10300495;28;20241;-67
2022/12/20 18:59:15;;;;;;;41.03;29.23;;;;;;;3.65;62.72;99842.72;10303291;28;20235;-67
2022/12/20 19:04:17;;;;;;;28.57;23.03;;;;;;;5.14;59.61;99920.94;10297693;28;20313;-67
2022/12/20 19:09:25;;;;;;;22.63;18.37;;;;;;;4.68;59.86;99909.34;10307212;28;20762;-67
2022/12/20 19:14:27;;;;;;;20.27;16.77;;;;;;;5.21;58.87;99933.63;10318651;28;20249;-69
2022/12/20 19:19:29;;;;;;;26.33;17.87;;;;;;;4.84;59.49;99908.75;10310428;28;20237;-71
2022/12/20 19:24:30;;;;;;;21.63;17.67;;;;;;;5.37;58.63;99935.63;10320244;28;20256;-70
2022/12/20 19:29:32;;;;;;;22.80;18.17;;;;;;;4.85;59.83;99913.06;10325225;28;20246;-70
2022/12/20 19:34:34;;;;;;;32.27;25.07;;;;;;;4.72;60.55;99905.41;10326491;28;20248;-69
2022/12/20 19:39:35;;;;;;;24.50;19.37;;;;;;;5.11;59.95;99920.38;10326871;28;20234;-71
2022/12/20 19:44:38;;;;;;;30.60;21.93;;;;;;;4.63;60.39;99910.78;10326420;28;20315;-71
2022/12/20 19:49:39;;;;;;;25.03;20.37;;;;;;;5.14;59.59;99943.97;10322159;28;20727;-70
2022/12/20 19:54:42;;;;;;;29.10;22.87;;;;;;;4.53;60.51;99926.69;10329324;28;20243;-70
2022/12/20 19:59:45;;;;;;;33.83;24.37;;;;;;;4.87;60.05;99945.59;10323746;28;20312;-73
2022/12/20 20:04:54;;;;;;;22.13;18.77;;;;;;;4.86;60.04;99940.41;10319055;28;20235;-70
2022/12/20 20:09:55;;;;;;;26.63;20.67;;;;;;;5.15;59.78;99948.31;10314754;28;20242;-72
2022/12/20 20:14:57;;;;;;;23.23;17.17;;;;;;;4.44;61.54;99901.00;10328041;28;20225;-70
2022/12/20 20:19:59;;;;;;;19.83;14.80;;;;;;;4.87;61.83;99919.06;10326102;28;20240;-69
2022/12/20 20:25:00;;;;;;;21.43;14.10;;;;;;;3.77;64.69;99853.19;10314424;28;21063;-69
2022/12/20 20:30:04;;;;;;;19.27;14.00;;;;;;;4.05;65.94;99856.81;10316940;28;20313;-69
2022/12/20 20:35:10;;;;;;;21.87;14.87;;;;;;;4.28;65.91;99867.13;10312905;28;20226;-69
2022/12/20 20:40:12;;;;;;;20.93;14.23;;;;;;;4.35;64.77;99892.94;10307753;28;20604;-70
2022/12/20 20:45:15;;;;;;;17.77;13.97;;;;;;;4.94;63.73;99908.72;10311025;28;20249;-69
2022/12/20 20:50:17;;;;;;;17.33;13.77;;;;;;;3.78;67.55;99833.69;10310779;28;20837;-69
2022/12/20 20:55:19;;;;;;;16.60;13.37;;;;;;;3.72;68.22;99831.59;10308671;28;20229;-70
2022/12/20 21:00:21;;;;;;;19.07;13.50;;;;;;;3.98;68.20;99835.34;10307677;28;20245;-70
2022/12/20 21:05:22;;;;;;;16.53;13.40;;;;;;;4.58;66.01;99868.78;10301789;28;20230;-71
2022/12/20 21:10:44;;;;;;;19.67;14.60;;;;;;;4.20;68.48;99825.44;10306580;28;20238;-69
2022/12/20 21:15:46;;;;;;;24.40;17.30;;;;;;;3.84;69.53;99806.66;10306268;28;20245;-74
2022/12/20 21:20:48;;;;;;;19.93;15.47;;;;;;;4.44;67.44;99806.47;10356009;28;20234;-70
2022/12/20 21:25:58;;;;;;;25.90;18.10;;;;;;;5.84;63.94;99859.38;10303700;28;20234;-71
2022/12/20 21:31:01;;;;;;;19.93;16.20;;;;;;;6.17;62.07;99870.28;10309740;28;20241;-71
2022/12/20 21:36:05;;;;;;;27.80;20.67;;;;;;;5.65;61.83;99856.88;10295186;28;20288;-69
2022/12/20 21:41:11;;;;;;;21.43;16.37;;;;;;;6.41;60.25;99892.72;10305333;28;20276;-69
2022/12/20 21:46:13;;;;;;;24.63;18.13;;;;;;;5.27;63.64;99826.91;10304258;28;20565;-69
2022/12/20 21:51:18;;;;;;;24.37;17.07;;;;;;;4.72;66.89;99794.06;10305180;28;20742;-68
2022/12/20 21:56:22;;;;;;;19.00;15.83;;;;;;;5.57;64.64;99835.50;10310131;28;20233;-67
2022/12/20 22:01:26;;;;;;;23.97;15.30;;;;;;;4.72;66.11;99794.06;10310241;28;20242;-66
2022/12/20 22:06:30;;;;;;;22.97;16.13;;;;;;;4.72;67.12;99790.59;10300959;28;20258;-66
2022/12/20 22:11:33;;;;;;;26.37;20.57;;;;;;;5.05;66.04;99799.81;10306234;28;20317;-67
2022/12/20 22:16:34;;;;;;;19.53;14.57;;;;;;;4.48;69.14;99773.41;10304621;28;20253;-67
2022/12/20 22:21:36;;;;;;;21.20;16.03;;;;;;;4.50;68.33;99767.94;10312107;28;20352;-67
2022/12/20 22:26:39;;;;;;;19.37;15.60;;;;;;;4.15;69.12;99750.88;10306603;28;20722;-67
2022/12/20 22:31:41;;;;;;;19.77;14.33;;;;;;;4.31;69.81;99732.56;10303889;28;20240;-67
2022/12/20 22:36:43;;;;;;;21.47;14.77;;;;;;;4.48;69.13;99757.50;10301476;28;20233;-67
2022/12/20 22:41:45;;;;;;;22.43;17.30;;;;;;;6.17;63.49;99853.53;10304933;28;20688;-67
2022/12/20 22:46:46;;;;;;;23.50;16.93;;;;;;;5.29;64.83;99795.75;10302387;28;20237;-67
2022/12/20 22:51:48;;;;;;;22.67;16.57;;;;;;;5.58;64.10;99834.53;10304583;28;20727;-67
2022/12/20 22:57:09;;;;;;;21.00;16.33;;;;;;;6.08;62.97;99855.28;10303949;28;20743;-66
2022/12/20 23:02:11;;;;;;;21.83;17.43;;;;;;;5.75;63.67;99839.03;10302668;28;20687;-65
2022/12/20 23:07:12;;;;;;;25.17;18.07;;;;;;;6.04;62.02;99861.88;10304522;28;20245;-66
2022/12/20 23:17:34;;;;;;;19.70;16.63;;;;;;;6.11;62.19;99873.59;10303021;28;20358;-65
2022/12/20 23:22:42;;;;;;;22.30;16.23;;;;;;;6.25;62.13;99880.16;10308301;28;20252;-67
2022/12/20 23:27:47;;;;;;;20.17;15.27;;;;;;;5.77;63.35;99844.19;10297202;28;20770;-66
2022/12/20 23:32:48;;;;;;;16.73;14.17;;;;;;;5.40;65.29;99807.97;10310412;28;20250;-67